sensor_id;sensor_type;location;lat;lon;timestamp;P1;durP1;ratioP1;P2;durP2;ratioP2
15381;SDS011;7789;51.364;12.358;2024-02-21T00:04:56;12.03;;;3.53;;
15381;SDS011;7789;51.364;12.358;2024-02-21T00:10:00;8.17;;;2.50;;
15381;SDS011;7789;51.364;12.358;2024-02-21T00:15:05;11.43;;;3.13;;
15381;SDS011;7789;51.364;12.358;2024-02-21T00:20:11;9.80;;;3.00;;
15381;SDS011;7789;51.364;12.358;2024-02-21T00:25:15;11.70;;;3.40;;
15381;SDS011;7789;51.364;12.358;2024-02-21T00:30:18;10.77;;;3.13;;
15381;SDS011;7789;51.364;12.358;2024-02-21T00:35:24;8.73;;;2.67;;
15381;SDS011;7789;51.364;12.358;2024-02-21T00:40:28;10.63;;;2.93;;
15381;SDS011;7789;51.364;12.358;2024-02-21T00:45:31;9.37;;;2.50;;
15381;SDS011;7789;51.364;12.358;2024-02-21T00:50:36;10.00;;;3.00;;
15381;SDS011;7789;51.364;12.358;2024-02-21T00:55:40;9.17;;;2.93;;
15381;SDS011;7789;51.364;12.358;2024-02-21T01:00:45;8.00;;;2.90;;
15381;SDS011;7789;51.364;12.358;2024-02-21T01:05:53;11.73;;;3.43;;
15381;SDS011;7789;51.364;12.358;2024-02-21T01:11:04;10.73;;;2.73;;
15381;SDS011;7789;51.364;12.358;2024-02-21T01:16:11;10.30;;;2.90;;
15381;SDS011;7789;51.364;12.358;2024-02-21T01:21:19;11.87;;;3.37;;
15381;SDS011;7789;51.364;12.358;2024-02-21T01:26:34;13.00;;;3.07;;
15381;SDS011;7789;51.364;12.358;2024-02-21T01:31:46;12.13;;;3.70;;
15381;SDS011;7789;51.364;12.358;2024-02-21T01:36:52;5.77;;;2.50;;
15381;SDS011;7789;51.364;12.358;2024-02-21T01:41:58;10.53;;;2.77;;
15381;SDS011;7789;51.364;12.358;2024-02-21T01:47:04;9.70;;;2.77;;
15381;SDS011;7789;51.364;12.358;2024-02-21T01:52:17;11.17;;;3.10;;
15381;SDS011;7789;51.364;12.358;2024-02-21T01:57:21;7.00;;;2.50;;
15381;SDS011;7789;51.364;12.358;2024-02-21T02:02:25;9.80;;;2.90;;
15381;SDS011;7789;51.364;12.358;2024-02-21T02:07:53;11.83;;;3.20;;
15381;SDS011;7789;51.364;12.358;2024-02-21T02:13:06;7.87;;;2.80;;
15381;SDS011;7789;51.364;12.358;2024-02-21T02:18:13;8.73;;;2.87;;
15381;SDS011;7789;51.364;12.358;2024-02-21T02:23:21;7.17;;;2.97;;
15381;SDS011;7789;51.364;12.358;2024-02-21T02:28:26;12.20;;;3.57;;
15381;SDS011;7789;51.364;12.358;2024-02-21T02:33:30;6.53;;;2.40;;
15381;SDS011;7789;51.364;12.358;2024-02-21T02:38:35;12.83;;;3.33;;
15381;SDS011;7789;51.364;12.358;2024-02-21T02:43:39;7.33;;;2.90;;
15381;SDS011;7789;51.364;12.358;2024-02-21T02:48:42;9.23;;;2.80;;
15381;SDS011;7789;51.364;12.358;2024-02-21T02:53:48;9.37;;;2.70;;
15381;SDS011;7789;51.364;12.358;2024-02-21T02:58:51;9.43;;;3.17;;
15381;SDS011;7789;51.364;12.358;2024-02-21T03:03:55;11.53;;;2.77;;
15381;SDS011;7789;51.364;12.358;2024-02-21T03:09:00;8.10;;;2.70;;
15381;SDS011;7789;51.364;12.358;2024-02-21T03:14:03;9.20;;;3.20;;
15381;SDS011;7789;51.364;12.358;2024-02-21T03:19:07;8.40;;;2.67;;
15381;SDS011;7789;51.364;12.358;2024-02-21T03:24:11;8.87;;;2.70;;
15381;SDS011;7789;51.364;12.358;2024-02-21T03:29:15;12.93;;;2.97;;
15381;SDS011;7789;51.364;12.358;2024-02-21T03:34:19;7.90;;;2.37;;
15381;SDS011;7789;51.364;12.358;2024-02-21T03:39:24;6.43;;;2.27;;
15381;SDS011;7789;51.364;12.358;2024-02-21T03:44:28;10.67;;;2.73;;
15381;SDS011;7789;51.364;12.358;2024-02-21T03:49:31;9.43;;;2.87;;
15381;SDS011;7789;51.364;12.358;2024-02-21T03:54:36;13.13;;;2.83;;
15381;SDS011;7789;51.364;12.358;2024-02-21T03:59:39;9.23;;;2.73;;
15381;SDS011;7789;51.364;12.358;2024-02-21T04:04:45;8.57;;;2.80;;
15381;SDS011;7789;51.364;12.358;2024-02-21T04:09:51;11.60;;;2.80;;
15381;SDS011;7789;51.364;12.358;2024-02-21T04:14:54;9.13;;;2.80;;
15381;SDS011;7789;51.364;12.358;2024-02-21T04:20:01;10.43;;;3.37;;
15381;SDS011;7789;51.364;12.358;2024-02-21T04:25:09;12.40;;;3.53;;
15381;SDS011;7789;51.364;12.358;2024-02-21T04:30:13;8.40;;;2.70;;
15381;SDS011;7789;51.364;12.358;2024-02-21T04:35:17;9.33;;;3.40;;
15381;SDS011;7789;51.364;12.358;2024-02-21T04:40:22;9.23;;;3.23;;
15381;SDS011;7789;51.364;12.358;2024-02-21T04:45:25;8.97;;;2.93;;
15381;SDS011;7789;51.364;12.358;2024-02-21T04:50:28;9.30;;;2.70;;
15381;SDS011;7789;51.364;12.358;2024-02-21T04:55:33;8.73;;;3.37;;
15381;SDS011;7789;51.364;12.358;2024-02-21T05:00:36;9.90;;;3.67;;
15381;SDS011;7789;51.364;12.358;2024-02-21T05:05:46;5.93;;;2.67;;
15381;SDS011;7789;51.364;12.358;2024-02-21T05:10:51;7.13;;;3.13;;
15381;SDS011;7789;51.364;12.358;2024-02-21T05:15:55;9.10;;;3.07;;
15381;SDS011;7789;51.364;12.358;2024-02-21T05:20:58;8.57;;;3.57;;
15381;SDS011;7789;51.364;12.358;2024-02-21T05:26:03;9.23;;;3.37;;
15381;SDS011;7789;51.364;12.358;2024-02-21T05:31:15;6.33;;;3.20;;
15381;SDS011;7789;51.364;12.358;2024-02-21T05:36:21;8.30;;;3.47;;
15381;SDS011;7789;51.364;12.358;2024-02-21T05:41:27;7.87;;;3.37;;
15381;SDS011;7789;51.364;12.358;2024-02-21T05:46:30;9.80;;;3.27;;
15381;SDS011;7789;51.364;12.358;2024-02-21T05:51:38;9.33;;;3.20;;
15381;SDS011;7789;51.364;12.358;2024-02-21T05:56:45;9.10;;;3.40;;
15381;SDS011;7789;51.364;12.358;2024-02-21T06:01:54;6.13;;;2.80;;
15381;SDS011;7789;51.364;12.358;2024-02-21T06:07:00;8.07;;;3.20;;
15381;SDS011;7789;51.364;12.358;2024-02-21T06:12:13;7.40;;;3.07;;
15381;SDS011;7789;51.364;12.358;2024-02-21T06:17:17;10.20;;;3.10;;
15381;SDS011;7789;51.364;12.358;2024-02-21T06:22:27;7.07;;;2.87;;
15381;SDS011;7789;51.364;12.358;2024-02-21T06:27:33;8.90;;;3.63;;
15381;SDS011;7789;51.364;12.358;2024-02-21T06:32:37;8.37;;;2.80;;
15381;SDS011;7789;51.364;12.358;2024-02-21T06:37:40;10.97;;;3.40;;
15381;SDS011;7789;51.364;12.358;2024-02-21T06:42:46;8.00;;;3.20;;
15381;SDS011;7789;51.364;12.358;2024-02-21T06:47:54;7.77;;;3.30;;
15381;SDS011;7789;51.364;12.358;2024-02-21T06:53:00;9.57;;;4.10;;
15381;SDS011;7789;51.364;12.358;2024-02-21T06:58:06;9.37;;;3.53;;
15381;SDS011;7789;51.364;12.358;2024-02-21T07:03:13;6.90;;;3.00;;
15381;SDS011;7789;51.364;12.358;2024-02-21T07:08:17;9.87;;;3.17;;
15381;SDS011;7789;51.364;12.358;2024-02-21T07:13:27;7.47;;;3.00;;
15381;SDS011;7789;51.364;12.358;2024-02-21T07:18:31;7.67;;;3.57;;
15381;SDS011;7789;51.364;12.358;2024-02-21T07:23:38;6.03;;;3.37;;
15381;SDS011;7789;51.364;12.358;2024-02-21T07:28:54;10.63;;;4.40;;
15381;SDS011;7789;51.364;12.358;2024-02-21T07:33:57;9.73;;;4.23;;
15381;SDS011;7789;51.364;12.358;2024-02-21T07:39:01;6.97;;;4.03;;
15381;SDS011;7789;51.364;12.358;2024-02-21T07:44:06;9.60;;;4.37;;
15381;SDS011;7789;51.364;12.358;2024-02-21T07:49:09;10.57;;;4.80;;
15381;SDS011;7789;51.364;12.358;2024-02-21T07:54:13;9.57;;;4.60;;
15381;SDS011;7789;51.364;12.358;2024-02-21T07:59:19;7.70;;;4.27;;
15381;SDS011;7789;51.364;12.358;2024-02-21T08:04:25;8.10;;;4.00;;
15381;SDS011;7789;51.364;12.358;2024-02-21T08:09:29;7.40;;;3.93;;
15381;SDS011;7789;51.364;12.358;2024-02-21T08:14:38;9.27;;;4.70;;
15381;SDS011;7789;51.364;12.358;2024-02-21T08:19:41;12.27;;;5.13;;
15381;SDS011;7789;51.364;12.358;2024-02-21T08:24:45;6.70;;;4.30;;
15381;SDS011;7789;51.364;12.358;2024-02-21T08:29:50;9.23;;;4.40;;
15381;SDS011;7789;51.364;12.358;2024-02-21T08:34:54;9.20;;;4.60;;
15381;SDS011;7789;51.364;12.358;2024-02-21T08:39:57;9.87;;;4.03;;
15381;SDS011;7789;51.364;12.358;2024-02-21T08:45:08;10.27;;;3.60;;
15381;SDS011;7789;51.364;12.358;2024-02-21T08:50:12;6.27;;;3.60;;
15381;SDS011;7789;51.364;12.358;2024-02-21T08:55:28;7.10;;;3.60;;
15381;SDS011;7789;51.364;12.358;2024-02-21T09:00:33;13.70;;;6.07;;
15381;SDS011;7789;51.364;12.358;2024-02-21T09:05:36;7.60;;;4.17;;
15381;SDS011;7789;51.364;12.358;2024-02-21T09:10:41;12.07;;;4.50;;
15381;SDS011;7789;51.364;12.358;2024-02-21T09:15:49;9.50;;;4.60;;
15381;SDS011;7789;51.364;12.358;2024-02-21T09:20:53;7.90;;;3.70;;
15381;SDS011;7789;51.364;12.358;2024-02-21T09:25:57;10.57;;;4.60;;
15381;SDS011;7789;51.364;12.358;2024-02-21T09:31:07;10.60;;;6.17;;
15381;SDS011;7789;51.364;12.358;2024-02-21T09:36:10;7.67;;;4.83;;
15381;SDS011;7789;51.364;12.358;2024-02-21T09:41:18;10.47;;;4.40;;
15381;SDS011;7789;51.364;12.358;2024-02-21T09:46:33;9.60;;;4.33;;
15381;SDS011;7789;51.364;12.358;2024-02-21T09:51:49;9.60;;;4.03;;
15381;SDS011;7789;51.364;12.358;2024-02-21T09:56:55;8.90;;;4.60;;
15381;SDS011;7789;51.364;12.358;2024-02-21T10:02:00;8.50;;;4.28;;
15381;SDS011;7789;51.364;12.358;2024-02-21T10:07:04;19.37;;;8.30;;
15381;SDS011;7789;51.364;12.358;2024-02-21T10:12:09;8.17;;;4.40;;
15381;SDS011;7789;51.364;12.358;2024-02-21T10:17:17;7.87;;;4.13;;
15381;SDS011;7789;51.364;12.358;2024-02-21T10:22:22;10.45;;;4.78;;
15381;SDS011;7789;51.364;12.358;2024-02-21T10:27:27;9.25;;;3.95;;
15381;SDS011;7789;51.364;12.358;2024-02-21T10:32:33;7.50;;;3.73;;
15381;SDS011;7789;51.364;12.358;2024-02-21T10:37:36;9.50;;;3.90;;
15381;SDS011;7789;51.364;12.358;2024-02-21T10:42:40;8.10;;;3.90;;
15381;SDS011;7789;51.364;12.358;2024-02-21T10:47:47;7.47;;;3.58;;
15381;SDS011;7789;51.364;12.358;2024-02-21T10:53:00;7.93;;;3.90;;
15381;SDS011;7789;51.364;12.358;2024-02-21T10:58:12;6.28;;;3.50;;
15381;SDS011;7789;51.364;12.358;2024-02-21T11:03:19;7.80;;;3.75;;
15381;SDS011;7789;51.364;12.358;2024-02-21T11:08:22;9.23;;;3.28;;
15381;SDS011;7789;51.364;12.358;2024-02-21T11:13:30;6.72;;;3.13;;
15381;SDS011;7789;51.364;12.358;2024-02-21T11:18:40;10.63;;;3.85;;
15381;SDS011;7789;51.364;12.358;2024-02-21T11:23:43;6.28;;;2.95;;
15381;SDS011;7789;51.364;12.358;2024-02-21T11:28:58;9.27;;;3.17;;
15381;SDS011;7789;51.364;12.358;2024-02-21T11:34:04;5.32;;;2.53;;
15381;SDS011;7789;51.364;12.358;2024-02-21T11:39:08;6.97;;;2.67;;
15381;SDS011;7789;51.364;12.358;2024-02-21T11:44:11;6.25;;;2.97;;
15381;SDS011;7789;51.364;12.358;2024-02-21T11:49:16;4.07;;;2.65;;
15381;SDS011;7789;51.364;12.358;2024-02-21T11:54:23;7.72;;;2.78;;
15381;SDS011;7789;51.364;12.358;2024-02-21T11:59:26;4.15;;;2.00;;
15381;SDS011;7789;51.364;12.358;2024-02-21T12:04:34;4.13;;;1.98;;
15381;SDS011;7789;51.364;12.358;2024-02-21T12:09:41;4.32;;;1.98;;
15381;SDS011;7789;51.364;12.358;2024-02-21T12:14:44;5.95;;;2.10;;
15381;SDS011;7789;51.364;12.358;2024-02-21T12:19:57;3.60;;;1.60;;
15381;SDS011;7789;51.364;12.358;2024-02-21T12:25:02;5.45;;;1.48;;
15381;SDS011;7789;51.364;12.358;2024-02-21T12:30:13;3.38;;;1.90;;
15381;SDS011;7789;51.364;12.358;2024-02-21T12:35:18;4.78;;;1.70;;
15381;SDS011;7789;51.364;12.358;2024-02-21T12:40:26;8.10;;;1.98;;
15381;SDS011;7789;51.364;12.358;2024-02-21T12:45:34;3.15;;;1.70;;
15381;SDS011;7789;51.364;12.358;2024-02-21T12:50:40;3.58;;;1.52;;
15381;SDS011;7789;51.364;12.358;2024-02-21T12:55:52;5.07;;;1.70;;
15381;SDS011;7789;51.364;12.358;2024-02-21T13:00:59;3.33;;;1.85;;
15381;SDS011;7789;51.364;12.358;2024-02-21T13:06:04;3.30;;;1.95;;
15381;SDS011;7789;51.364;12.358;2024-02-21T13:11:08;4.70;;;1.85;;
15381;SDS011;7789;51.364;12.358;2024-02-21T13:16:17;4.22;;;1.63;;
15381;SDS011;7789;51.364;12.358;2024-02-21T13:21:22;3.53;;;1.90;;
15381;SDS011;7789;51.364;12.358;2024-02-21T13:26:27;3.83;;;1.95;;
15381;SDS011;7789;51.364;12.358;2024-02-21T13:31:31;5.93;;;2.22;;
15381;SDS011;7789;51.364;12.358;2024-02-21T13:36:36;3.03;;;2.00;;
15381;SDS011;7789;51.364;12.358;2024-02-21T13:41:40;2.53;;;1.90;;
15381;SDS011;7789;51.364;12.358;2024-02-21T13:46:58;5.18;;;1.60;;
15381;SDS011;7789;51.364;12.358;2024-02-21T13:52:03;3.90;;;1.85;;
15381;SDS011;7789;51.364;12.358;2024-02-21T13:57:07;3.67;;;1.23;;
15381;SDS011;7789;51.364;12.358;2024-02-21T14:02:11;2.50;;;1.40;;
15381;SDS011;7789;51.364;12.358;2024-02-21T14:07:16;3.38;;;1.60;;
15381;SDS011;7789;51.364;12.358;2024-02-21T14:12:20;4.63;;;1.80;;
15381;SDS011;7789;51.364;12.358;2024-02-21T14:17:23;3.33;;;1.45;;
15381;SDS011;7789;51.364;12.358;2024-02-21T14:22:28;3.72;;;1.88;;
15381;SDS011;7789;51.364;12.358;2024-02-21T14:27:31;6.20;;;1.60;;
15381;SDS011;7789;51.364;12.358;2024-02-21T14:32:35;3.92;;;1.73;;
15381;SDS011;7789;51.364;12.358;2024-02-21T14:37:43;3.70;;;1.55;;
15381;SDS011;7789;51.364;12.358;2024-02-21T14:42:51;2.85;;;1.33;;
15381;SDS011;7789;51.364;12.358;2024-02-21T14:47:58;4.55;;;1.88;;
15381;SDS011;7789;51.364;12.358;2024-02-21T14:53:08;5.30;;;1.98;;
15381;SDS011;7789;51.364;12.358;2024-02-21T14:58:15;4.85;;;2.17;;
15381;SDS011;7789;51.364;12.358;2024-02-21T15:03:21;4.90;;;1.67;;
15381;SDS011;7789;51.364;12.358;2024-02-21T15:08:26;3.50;;;1.55;;
15381;SDS011;7789;51.364;12.358;2024-02-21T15:13:29;4.55;;;1.75;;
15381;SDS011;7789;51.364;12.358;2024-02-21T15:18:33;6.03;;;1.80;;
15381;SDS011;7789;51.364;12.358;2024-02-21T15:23:41;6.38;;;1.85;;
15381;SDS011;7789;51.364;12.358;2024-02-21T15:28:45;6.57;;;2.40;;
15381;SDS011;7789;51.364;12.358;2024-02-21T15:33:48;7.15;;;2.00;;
15381;SDS011;7789;51.364;12.358;2024-02-21T15:38:54;5.40;;;2.05;;
15381;SDS011;7789;51.364;12.358;2024-02-21T15:44:01;4.78;;;2.20;;
15381;SDS011;7789;51.364;12.358;2024-02-21T15:49:06;5.32;;;2.17;;
15381;SDS011;7789;51.364;12.358;2024-02-21T15:54:11;6.22;;;2.78;;
15381;SDS011;7789;51.364;12.358;2024-02-21T15:59:24;5.82;;;2.40;;
15381;SDS011;7789;51.364;12.358;2024-02-21T16:04:27;6.68;;;2.88;;
15381;SDS011;7789;51.364;12.358;2024-02-21T16:09:32;7.47;;;3.35;;
15381;SDS011;7789;51.364;12.358;2024-02-21T16:14:36;5.10;;;1.90;;
15381;SDS011;7789;51.364;12.358;2024-02-21T16:19:41;5.68;;;2.08;;
15381;SDS011;7789;51.364;12.358;2024-02-21T16:24:46;5.65;;;1.70;;
15381;SDS011;7789;51.364;12.358;2024-02-21T16:29:53;3.55;;;1.80;;
15381;SDS011;7789;51.364;12.358;2024-02-21T16:34:57;3.90;;;1.70;;
15381;SDS011;7789;51.364;12.358;2024-02-21T16:40:03;4.15;;;1.90;;
15381;SDS011;7789;51.364;12.358;2024-02-21T16:45:08;2.95;;;1.90;;
15381;SDS011;7789;51.364;12.358;2024-02-21T16:50:11;5.93;;;2.03;;
15381;SDS011;7789;51.364;12.358;2024-02-21T16:55:17;6.97;;;2.17;;
15381;SDS011;7789;51.364;12.358;2024-02-21T17:00:21;4.33;;;1.90;;
15381;SDS011;7789;51.364;12.358;2024-02-21T17:05:24;3.78;;;1.80;;
15381;SDS011;7789;51.364;12.358;2024-02-21T17:10:29;3.63;;;2.00;;
15381;SDS011;7789;51.364;12.358;2024-02-21T17:15:33;6.57;;;2.10;;
15381;SDS011;7789;51.364;12.358;2024-02-21T17:20:39;6.23;;;2.13;;
15381;SDS011;7789;51.364;12.358;2024-02-21T17:25:48;6.83;;;2.23;;
15381;SDS011;7789;51.364;12.358;2024-02-21T17:30:51;4.43;;;1.97;;
15381;SDS011;7789;51.364;12.358;2024-02-21T17:35:59;3.47;;;2.00;;
15381;SDS011;7789;51.364;12.358;2024-02-21T17:41:05;4.87;;;2.40;;
15381;SDS011;7789;51.364;12.358;2024-02-21T17:46:09;4.70;;;2.20;;
15381;SDS011;7789;51.364;12.358;2024-02-21T17:51:12;6.00;;;2.20;;
15381;SDS011;7789;51.364;12.358;2024-02-21T17:56:17;3.93;;;1.70;;
15381;SDS011;7789;51.364;12.358;2024-02-21T18:01:25;5.47;;;1.80;;
15381;SDS011;7789;51.364;12.358;2024-02-21T18:06:30;6.10;;;2.80;;
15381;SDS011;7789;51.364;12.358;2024-02-21T18:11:37;7.90;;;2.50;;
15381;SDS011;7789;51.364;12.358;2024-02-21T18:16:41;6.93;;;2.00;;
15381;SDS011;7789;51.364;12.358;2024-02-21T18:21:44;7.07;;;2.10;;
15381;SDS011;7789;51.364;12.358;2024-02-21T18:26:49;4.57;;;1.63;;
15381;SDS011;7789;51.364;12.358;2024-02-21T18:31:53;5.23;;;2.20;;
15381;SDS011;7789;51.364;12.358;2024-02-21T18:36:57;8.33;;;2.27;;
15381;SDS011;7789;51.364;12.358;2024-02-21T18:42:06;7.83;;;2.23;;
15381;SDS011;7789;51.364;12.358;2024-02-21T18:47:10;5.67;;;2.33;;
15381;SDS011;7789;51.364;12.358;2024-02-21T18:52:14;6.37;;;2.13;;
15381;SDS011;7789;51.364;12.358;2024-02-21T18:57:23;8.07;;;2.57;;
15381;SDS011;7789;51.364;12.358;2024-02-21T19:02:26;6.03;;;2.17;;
15381;SDS011;7789;51.364;12.358;2024-02-21T19:07:30;4.20;;;2.20;;
15381;SDS011;7789;51.364;12.358;2024-02-21T19:12:37;6.43;;;2.30;;
15381;SDS011;7789;51.364;12.358;2024-02-21T19:17:41;6.57;;;2.57;;
15381;SDS011;7789;51.364;12.358;2024-02-21T19:22:45;4.40;;;1.97;;
15381;SDS011;7789;51.364;12.358;2024-02-21T19:27:54;7.57;;;2.30;;
15381;SDS011;7789;51.364;12.358;2024-02-21T19:33:03;5.77;;;2.10;;
15381;SDS011;7789;51.364;12.358;2024-02-21T19:38:06;7.90;;;2.63;;
15381;SDS011;7789;51.364;12.358;2024-02-21T19:43:14;6.07;;;2.50;;
15381;SDS011;7789;51.364;12.358;2024-02-21T19:48:18;6.20;;;2.30;;
15381;SDS011;7789;51.364;12.358;2024-02-21T19:53:30;5.50;;;2.40;;
15381;SDS011;7789;51.364;12.358;2024-02-21T19:58:36;9.27;;;2.17;;
15381;SDS011;7789;51.364;12.358;2024-02-21T20:03:40;4.27;;;1.80;;
15381;SDS011;7789;51.364;12.358;2024-02-21T20:08:44;4.50;;;2.30;;
15381;SDS011;7789;51.364;12.358;2024-02-21T20:13:51;7.10;;;2.00;;
15381;SDS011;7789;51.364;12.358;2024-02-21T20:18:55;5.00;;;1.77;;
15381;SDS011;7789;51.364;12.358;2024-02-21T20:23:59;7.43;;;2.30;;
15381;SDS011;7789;51.364;12.358;2024-02-21T20:29:11;5.33;;;2.20;;
15381;SDS011;7789;51.364;12.358;2024-02-21T20:34:19;4.83;;;1.90;;
15381;SDS011;7789;51.364;12.358;2024-02-21T20:39:32;4.13;;;1.70;;
15381;SDS011;7789;51.364;12.358;2024-02-21T20:44:38;4.53;;;1.93;;
15381;SDS011;7789;51.364;12.358;2024-02-21T20:49:41;6.37;;;2.03;;
15381;SDS011;7789;51.364;12.358;2024-02-21T20:54:45;5.70;;;1.83;;
15381;SDS011;7789;51.364;12.358;2024-02-21T20:59:49;5.17;;;1.90;;
15381;SDS011;7789;51.364;12.358;2024-02-21T21:04:53;3.27;;;1.57;;
15381;SDS011;7789;51.364;12.358;2024-02-21T21:09:57;5.13;;;1.77;;
15381;SDS011;7789;51.364;12.358;2024-02-21T21:15:03;4.20;;;1.53;;
15381;SDS011;7789;51.364;12.358;2024-02-21T21:20:08;5.57;;;1.77;;
15381;SDS011;7789;51.364;12.358;2024-02-21T21:25:13;2.77;;;1.33;;
15381;SDS011;7789;51.364;12.358;2024-02-21T21:30:18;4.97;;;1.50;;
15381;SDS011;7789;51.364;12.358;2024-02-21T21:35:23;4.77;;;1.40;;
15381;SDS011;7789;51.364;12.358;2024-02-21T21:40:34;3.87;;;1.53;;
15381;SDS011;7789;51.364;12.358;2024-02-21T21:45:39;14.40;;;1.80;;
15381;SDS011;7789;51.364;12.358;2024-02-21T21:50:44;3.70;;;1.80;;
15381;SDS011;7789;51.364;12.358;2024-02-21T21:55:48;3.33;;;1.43;;
15381;SDS011;7789;51.364;12.358;2024-02-21T22:00:57;3.07;;;1.63;;
15381;SDS011;7789;51.364;12.358;2024-02-21T22:06:04;8.37;;;1.57;;
15381;SDS011;7789;51.364;12.358;2024-02-21T22:11:14;4.05;;;1.65;;
15381;SDS011;7789;51.364;12.358;2024-02-21T22:16:23;4.85;;;1.48;;
15381;SDS011;7789;51.364;12.358;2024-02-21T22:21:34;5.77;;;1.80;;
15381;SDS011;7789;51.364;12.358;2024-02-21T22:26:37;3.43;;;1.13;;
15381;SDS011;7789;51.364;12.358;2024-02-21T22:31:42;3.30;;;1.20;;
15381;SDS011;7789;51.364;12.358;2024-02-21T22:36:45;3.03;;;1.40;;
15381;SDS011;7789;51.364;12.358;2024-02-21T22:41:49;2.60;;;1.40;;
15381;SDS011;7789;51.364;12.358;2024-02-21T22:46:54;4.00;;;1.77;;
15381;SDS011;7789;51.364;12.358;2024-02-21T22:51:58;3.47;;;1.33;;
15381;SDS011;7789;51.364;12.358;2024-02-21T22:57:05;3.17;;;1.40;;
15381;SDS011;7789;51.364;12.358;2024-02-21T23:02:10;2.40;;;1.10;;
15381;SDS011;7789;51.364;12.358;2024-02-21T23:07:22;2.57;;;1.40;;
15381;SDS011;7789;51.364;12.358;2024-02-21T23:12:30;4.70;;;1.37;;
15381;SDS011;7789;51.364;12.358;2024-02-21T23:17:41;4.50;;;1.10;;
15381;SDS011;7789;51.364;12.358;2024-02-21T23:22:44;4.17;;;1.20;;
15381;SDS011;7789;51.364;12.358;2024-02-21T23:27:48;2.10;;;1.03;;
15381;SDS011;7789;51.364;12.358;2024-02-21T23:32:53;2.37;;;1.00;;
15381;SDS011;7789;51.364;12.358;2024-02-21T23:37:59;4.70;;;1.43;;
15381;SDS011;7789;51.364;12.358;2024-02-21T23:43:03;3.03;;;0.93;;
15381;SDS011;7789;51.364;12.358;2024-02-21T23:48:08;3.95;;;0.80;;
15381;SDS011;7789;51.364;12.358;2024-02-21T23:53:15;1.88;;;0.80;;
15381;SDS011;7789;51.364;12.358;2024-02-21T23:58:19;2.60;;;0.85;;
